Falkenberg, Sweden

1:36 PM CET on December 07, 2016 (GMT +0100)
Fajans | | Change Station

Elev 43 ft 56.91 °N, 12.51 °E | Updated 4 seconds ago

Drizzle
Drizzle
39.0 °F
Feels Like 39 °F
N
1.8
Wind Variable Wind from WSW
Gusts 2.5 mph

Today
High -- | Low -- °F
--% Chance of Precip.
Yesterday
High -- | Low -- °F
Precip. -- in
Pressure 30.18 in
Visibility 5.6 miles
Clouds Mostly Cloudy 1700 ft
Windchill 39 °F
Dew Point 38 °F
Humidity 95%
Rainfall 0.05 in
Snow Depth Not available.
8:32 AM 3:30 PM
First Quarter, 52% visible
METAR ESMT 071220Z 20013KT 9000 DZ BKN017 04/02 Q1022
Pressure 30.18 in
Visibility 5.6 miles
Clouds Mostly Cloudy 1700 ft
Windchill 39 °F
Dew Point 38 °F
Humidity 95%
Rainfall 0.05 in
Snow Depth Not available.
8:32 AM 3:30 PM
First Quarter, 52% visible
METAR ESMT 071220Z 20013KT 9000 DZ BKN017 04/02 Q1022

10-Day Weather Forecast

×

Almanac

Astronomy

Dec. 07, 2016 Rise Set
Actual Time
Civil Twilight
Nautical Twilight
Astronomical Twilight
Moon
Length of Visible Light
Length of Day
Tomorrow will be .
, % of the Moon is Illuminated

Today's Extremes

Country Highs Country Lows

Community

WunderPhotos

Upload Photos

1,956,111 photos uploaded!

WunderBlog® & News

Nearby

Air Quality

  Air Quality AQ Index Pollutant
Not available.

Snow Depth

Station Depth Elevation

Earthquake Activity

City Distance Mag. Time & Date
Minimum magnitude displayed is 2.5.

Coastal Water Temperatures

Place Temperature

Stations

Nearby Weather Stations

Station Location Temp. Windchill Dew Point Humidity Wind Precip. Elev Updated Type